sensor_id;sensor_type;location;lat;lon;timestamp;pressure;altitude;pressure_sealevel;temperature;humidity
70200;BME280;57587;55.688;37.600;2024-02-23T00:01:25;99742.03;;;-1.87;76.66
70200;BME280;57587;55.688;37.600;2024-02-23T00:03:52;99729.53;;;-1.83;75.64
70200;BME280;57587;55.688;37.600;2024-02-23T00:06:20;99732.16;;;-1.83;75.88
70200;BME280;57587;55.688;37.600;2024-02-23T00:08:47;99731.97;;;-1.80;75.07
70200;BME280;57587;55.688;37.600;2024-02-23T00:11:14;99735.22;;;-1.77;75.66
70200;BME280;57587;55.688;37.600;2024-02-23T00:13:41;99746.66;;;-1.78;75.40
70200;BME280;57587;55.688;37.600;2024-02-23T00:16:08;99733.88;;;-1.82;75.08
70200;BME280;57587;55.688;37.600;2024-02-23T00:18:35;99735.09;;;-1.88;75.33
70200;BME280;57587;55.688;37.600;2024-02-23T00:21:02;99754.84;;;-1.82;74.79
70200;BME280;57587;55.688;37.600;2024-02-23T00:23:29;99733.25;;;-1.73;75.24
70200;BME280;57587;55.688;37.600;2024-02-23T00:25:57;99737.22;;;-1.68;74.90
70200;BME280;57587;55.688;37.600;2024-02-23T00:28:24;99728.22;;;-1.76;74.72
70200;BME280;57587;55.688;37.600;2024-02-23T00:30:51;99751.06;;;-1.78;75.19
70200;BME280;57587;55.688;37.600;2024-02-23T00:33:19;99736.38;;;-1.81;75.65
70200;BME280;57587;55.688;37.600;2024-02-23T00:35:46;99730.28;;;-1.81;75.88
70200;BME280;57587;55.688;37.600;2024-02-23T00:38:13;99731.97;;;-1.80;75.82
70200;BME280;57587;55.688;37.600;2024-02-23T00:40:41;99732.50;;;-1.75;76.16
70200;BME280;57587;55.688;37.600;2024-02-23T00:43:08;99735.69;;;-1.70;75.76
70200;BME280;57587;55.688;37.600;2024-02-23T00:45:35;99732.00;;;-1.68;75.96
70200;BME280;57587;55.688;37.600;2024-02-23T00:48:02;99742.59;;;-1.69;76.24
70200;BME280;57587;55.688;37.600;2024-02-23T00:50:29;99734.53;;;-1.66;76.21
70200;BME280;57587;55.688;37.600;2024-02-23T00:52:56;99738.94;;;-1.67;75.80
70200;BME280;57587;55.688;37.600;2024-02-23T00:55:24;99736.63;;;-1.58;75.68
70200;BME280;57587;55.688;37.600;2024-02-23T00:57:52;99749.44;;;-1.54;75.55
70200;BME280;57587;55.688;37.600;2024-02-23T01:00:19;99745.78;;;-1.51;75.18
70200;BME280;57587;55.688;37.600;2024-02-23T01:02:46;99739.56;;;-1.63;74.77
70200;BME280;57587;55.688;37.600;2024-02-23T01:05:13;99750.16;;;-1.52;74.92
70200;BME280;57587;55.688;37.600;2024-02-23T01:07:40;99744.75;;;-1.36;74.66
70200;BME280;57587;55.688;37.600;2024-02-23T01:10:08;99747.88;;;-1.44;74.24
70200;BME280;57587;55.688;37.600;2024-02-23T01:12:36;99758.16;;;-1.53;74.47
70200;BME280;57587;55.688;37.600;2024-02-23T01:15:03;99751.13;;;-1.53;74.21
70200;BME280;57587;55.688;37.600;2024-02-23T01:17:31;99755.75;;;-1.44;74.41
70200;BME280;57587;55.688;37.600;2024-02-23T01:19:59;99758.91;;;-1.38;74.07
70200;BME280;57587;55.688;37.600;2024-02-23T01:22:27;99754.38;;;-1.36;73.67
70200;BME280;57587;55.688;37.600;2024-02-23T01:24:54;99758.50;;;-1.32;73.42
70200;BME280;57587;55.688;37.600;2024-02-23T01:27:21;99758.09;;;-1.26;73.60
70200;BME280;57587;55.688;37.600;2024-02-23T01:29:49;99755.97;;;-1.21;73.25
70200;BME280;57587;55.688;37.600;2024-02-23T01:32:16;99754.72;;;-1.28;73.47
70200;BME280;57587;55.688;37.600;2024-02-23T01:34:43;99746.97;;;-1.30;73.42
70200;BME280;57587;55.688;37.600;2024-02-23T01:37:11;99747.38;;;-1.23;73.24
70200;BME280;57587;55.688;37.600;2024-02-23T01:39:38;99747.38;;;-1.23;73.16
70200;BME280;57587;55.688;37.600;2024-02-23T01:42:05;99729.50;;;-1.31;73.00
70200;BME280;57587;55.688;37.600;2024-02-23T01:44:32;99749.88;;;-1.22;73.32
70200;BME280;57587;55.688;37.600;2024-02-23T01:46:59;99740.22;;;-1.21;72.91
70200;BME280;57587;55.688;37.600;2024-02-23T01:49:27;99738.75;;;-1.25;72.91
70200;BME280;57587;55.688;37.600;2024-02-23T01:51:58;99732.75;;;-1.40;73.60
70200;BME280;57587;55.688;37.600;2024-02-23T01:54:26;99745.38;;;-1.32;73.41
70200;BME280;57587;55.688;37.600;2024-02-23T01:56:56;99746.00;;;-1.42;73.39
70200;BME280;57587;55.688;37.600;2024-02-23T01:59:37;99749.69;;;-1.31;72.96
70200;BME280;57587;55.688;37.600;2024-02-23T02:02:05;99748.00;;;-1.32;73.33
70200;BME280;57587;55.688;37.600;2024-02-23T02:04:32;99748.97;;;-1.21;72.85
70200;BME280;57587;55.688;37.600;2024-02-23T02:07:00;99754.50;;;-1.25;72.77
70200;BME280;57587;55.688;37.600;2024-02-23T02:09:28;99745.47;;;-1.21;72.95
70200;BME280;57587;55.688;37.600;2024-02-23T02:11:55;99748.63;;;-1.16;72.92
70200;BME280;57587;55.688;37.600;2024-02-23T02:14:22;99749.16;;;-1.11;72.50
70200;BME280;57587;55.688;37.600;2024-02-23T02:16:49;99743.28;;;-1.14;71.94
70200;BME280;57587;55.688;37.600;2024-02-23T02:19:16;99757.56;;;-1.06;72.14
70200;BME280;57587;55.688;37.600;2024-02-23T02:21:44;99752.00;;;-1.14;72.10
70200;BME280;57587;55.688;37.600;2024-02-23T02:24:11;99734.56;;;-1.15;72.47
70200;BME280;57587;55.688;37.600;2024-02-23T02:26:41;99750.00;;;-1.36;73.04
70200;BME280;57587;55.688;37.600;2024-02-23T02:29:09;99738.75;;;-1.25;73.26
70200;BME280;57587;55.688;37.600;2024-02-23T02:31:37;99734.97;;;-1.21;72.75
70200;BME280;57587;55.688;37.600;2024-02-23T02:34:04;99740.22;;;-1.21;72.76
70200;BME280;57587;55.688;37.600;2024-02-23T02:36:31;99752.84;;;-1.26;72.73
70200;BME280;57587;55.688;37.600;2024-02-23T02:38:58;99756.41;;;-1.27;72.91
70200;BME280;57587;55.688;37.600;2024-02-23T02:41:28;99745.47;;;-1.34;73.10
70200;BME280;57587;55.688;37.600;2024-02-23T02:43:57;99749.47;;;-1.28;73.36
70200;BME280;57587;55.688;37.600;2024-02-23T02:46:24;99746.44;;;-1.22;72.74
70200;BME280;57587;55.688;37.600;2024-02-23T02:48:51;99745.47;;;-1.34;73.15
70200;BME280;57587;55.688;37.600;2024-02-23T02:51:18;99749.78;;;-1.33;73.18
70200;BME280;57587;55.688;37.600;2024-02-23T02:53:45;99748.50;;;-1.40;73.37
70200;BME280;57587;55.688;37.600;2024-02-23T02:56:12;99750.50;;;-1.44;73.61
70200;BME280;57587;55.688;37.600;2024-02-23T02:58:39;99748.41;;;-1.38;73.68
70200;BME280;57587;55.688;37.600;2024-02-23T03:01:08;99751.03;;;-1.38;73.21
70200;BME280;57587;55.688;37.600;2024-02-23T03:03:35;99762.78;;;-1.44;73.59
70200;BME280;57587;55.688;37.600;2024-02-23T03:06:02;99746.63;;;-1.51;73.85
70200;BME280;57587;55.688;37.600;2024-02-23T03:08:29;99762.47;;;-1.40;73.65
70200;BME280;57587;55.688;37.600;2024-02-23T03:10:56;99751.47;;;-1.32;73.47
70200;BME280;57587;55.688;37.600;2024-02-23T03:13:24;99756.41;;;-1.27;73.27
70200;BME280;57587;55.688;37.600;2024-02-23T03:15:51;99762.91;;;-1.33;73.27
70200;BME280;57587;55.688;37.600;2024-02-23T03:18:18;99769.00;;;-1.32;73.79
70200;BME280;57587;55.688;37.600;2024-02-23T03:20:45;99762.47;;;-1.40;73.67
70200;BME280;57587;55.688;37.600;2024-02-23T03:23:12;99764.88;;;-1.36;73.83
70200;BME280;57587;55.688;37.600;2024-02-23T03:25:39;99771.63;;;-1.32;73.63
70200;BME280;57587;55.688;37.600;2024-02-23T03:28:06;99762.06;;;-1.33;73.92
70200;BME280;57587;55.688;37.600;2024-02-23T03:30:34;99773.00;;;-1.27;73.74
70200;BME280;57587;55.688;37.600;2024-02-23T03:33:03;99769.75;;;-1.18;73.08
70200;BME280;57587;55.688;37.600;2024-02-23T03:35:30;99765.22;;;-1.16;73.31
70200;BME280;57587;55.688;37.600;2024-02-23T03:37:58;99766.69;;;-1.24;73.45
70200;BME280;57587;55.688;37.600;2024-02-23T03:40:25;99772.06;;;-1.26;73.79
70200;BME280;57587;55.688;37.600;2024-02-23T03:42:52;99768.38;;;-1.23;73.52
70200;BME280;57587;55.688;37.600;2024-02-23T03:45:19;99770.59;;;-1.30;73.84
70200;BME280;57587;55.688;37.600;2024-02-23T03:47:46;99785.81;;;-1.35;74.16
70200;BME280;57587;55.688;37.600;2024-02-23T03:50:13;99784.56;;;-1.29;74.09
70200;BME280;57587;55.688;37.600;2024-02-23T03:52:41;99802.59;;;-1.37;74.53
70200;BME280;57587;55.688;37.600;2024-02-23T03:55:08;99790.53;;;-1.27;74.43
70200;BME280;57587;55.688;37.600;2024-02-23T03:57:36;99795.47;;;-1.10;74.10
70200;BME280;57587;55.688;37.600;2024-02-23T04:00:04;99789.47;;;-0.99;73.51
70200;BME280;57587;55.688;37.600;2024-02-23T04:02:40;99792.78;;;-1.08;73.49
70200;BME280;57587;55.688;37.600;2024-02-23T04:05:07;99785.19;;;-1.13;73.47
70200;BME280;57587;55.688;37.600;2024-02-23T04:07:34;99766.81;;;-1.13;73.45
70200;BME280;57587;55.688;37.600;2024-02-23T04:10:02;99765.66;;;-1.09;73.87
70200;BME280;57587;55.688;37.600;2024-02-23T04:12:31;99773.00;;;-1.01;73.75
70200;BME280;57587;55.688;37.600;2024-02-23T04:14:59;99788.56;;;-1.11;73.94
70200;BME280;57587;55.688;37.600;2024-02-23T04:17:26;99797.06;;;-0.95;73.64
70200;BME280;57587;55.688;37.600;2024-02-23T04:19:53;99798.22;;;-0.86;73.17
70200;BME280;57587;55.688;37.600;2024-02-23T04:22:20;99795.28;;;-0.81;73.13
70200;BME280;57587;55.688;37.600;2024-02-23T04:24:47;99800.72;;;-0.84;72.85
70200;BME280;57587;55.688;37.600;2024-02-23T04:27:14;99795.47;;;-0.84;73.20
70200;BME280;57587;55.688;37.600;2024-02-23T04:29:42;99780.88;;;-0.76;73.13
70200;BME280;57587;55.688;37.600;2024-02-23T04:32:09;99786.25;;;-0.77;72.88
70200;BME280;57587;55.688;37.600;2024-02-23T04:34:36;99791.28;;;-0.87;72.85
70200;BME280;57587;55.688;37.600;2024-02-23T04:37:03;99793.19;;;-0.89;73.45
70200;BME280;57587;55.688;37.600;2024-02-23T04:39:30;99796.31;;;-0.97;73.96
70200;BME280;57587;55.688;37.600;2024-02-23T04:41:57;99817.13;;;-1.06;74.13
70200;BME280;57587;55.688;37.600;2024-02-23T04:44:25;99795.69;;;-1.13;75.05
70200;BME280;57587;55.688;37.600;2024-02-23T04:46:52;99812.91;;;-1.09;75.09
70200;BME280;57587;55.688;37.600;2024-02-23T04:49:19;99796.75;;;-1.03;74.97
70200;BME280;57587;55.688;37.600;2024-02-23T04:59:58;99815.66;;;-0.98;74.55
70200;BME280;57587;55.688;37.600;2024-02-23T05:02:26;99808.53;;;-0.96;74.80
70200;BME280;57587;55.688;37.600;2024-02-23T05:04:56;99806.53;;;-1.05;74.93
70200;BME280;57587;55.688;37.600;2024-02-23T05:07:24;99809.88;;;-1.03;75.11
70200;BME280;57587;55.688;37.600;2024-02-23T05:09:51;99827.63;;;-1.06;75.48
70200;BME280;57587;55.688;37.600;2024-02-23T05:12:18;99824.69;;;-1.02;75.31
70200;BME280;57587;55.688;37.600;2024-02-23T05:14:45;99836.66;;;-0.98;74.95
70200;BME280;57587;55.688;37.600;2024-02-23T05:17:12;99832.88;;;-0.94;74.99
70200;BME280;57587;55.688;37.600;2024-02-23T05:19:40;99820.06;;;-0.85;74.86
70200;BME280;57587;55.688;37.600;2024-02-23T05:22:07;99818.28;;;-0.98;74.84
70200;BME280;57587;55.688;37.600;2024-02-23T05:24:34;99836.66;;;-0.98;75.33
70200;BME280;57587;55.688;37.600;2024-02-23T05:27:01;99815.88;;;-1.01;75.00
70200;BME280;57587;55.688;37.600;2024-02-23T05:29:31;99820.06;;;-1.11;75.17
70200;BME280;57587;55.688;37.600;2024-02-23T05:31:58;99822.56;;;-1.09;75.63
70200;BME280;57587;55.688;37.600;2024-02-23T05:34:29;99825.63;;;-1.03;75.68
70200;BME280;57587;55.688;37.600;2024-02-23T05:37:07;99833.00;;;-1.08;75.72
70200;BME280;57587;55.688;37.600;2024-02-23T05:46:16;99826.59;;;-1.04;75.53
70200;BME280;57587;55.688;37.600;2024-02-23T05:49:14;99839.84;;;-0.93;75.47
70200;BME280;57587;55.688;37.600;2024-02-23T05:51:44;99837.50;;;-1.10;75.46
70200;BME280;57587;55.688;37.600;2024-02-23T05:54:11;99847.59;;;-1.04;75.43
70200;BME280;57587;55.688;37.600;2024-02-23T05:56:38;99846.97;;;-0.95;75.53
70200;BME280;57587;55.688;37.600;2024-02-23T05:59:05;99839.84;;;-0.93;75.11
70200;BME280;57587;55.688;37.600;2024-02-23T06:01:33;99843.59;;;-0.84;74.72
70200;BME280;57587;55.688;37.600;2024-02-23T06:04:00;99849.81;;;-0.85;74.86
70200;BME280;57587;55.688;37.600;2024-02-23T06:06:28;99847.59;;;-0.78;74.49
70200;BME280;57587;55.688;37.600;2024-02-23T06:08:55;99845.09;;;-0.93;74.62
70200;BME280;57587;55.688;37.600;2024-02-23T06:11:23;99848.66;;;-0.94;75.01
70200;BME280;57587;55.688;37.600;2024-02-23T06:13:50;99863.34;;;-1.04;74.99
70200;BME280;57587;55.688;37.600;2024-02-23T06:16:17;99848.34;;;-1.02;75.52
70200;BME280;57587;55.688;37.600;2024-02-23T06:18:44;99846.13;;;-0.95;74.95
70200;BME280;57587;55.688;37.600;2024-02-23T06:21:15;99859.16;;;-0.81;74.88
70200;BME280;57587;55.688;37.600;2024-02-23T06:23:42;99885.81;;;-1.00;75.05
70200;BME280;57587;55.688;37.600;2024-02-23T06:26:10;99862.31;;;-0.88;75.17
70200;BME280;57587;55.688;37.600;2024-02-23T06:28:38;99860.66;;;-0.89;74.55
70200;BME280;57587;55.688;37.600;2024-02-23T06:31:08;99867.97;;;-0.95;74.86
70200;BME280;57587;55.688;37.600;2024-02-23T06:33:36;99870.69;;;-0.96;75.03
70200;BME280;57587;55.688;37.600;2024-02-23T06:36:04;99872.91;;;-1.03;75.18
70200;BME280;57587;55.688;37.600;2024-02-23T06:38:31;99863.69;;;-0.96;75.09
70200;BME280;57587;55.688;37.600;2024-02-23T06:40:59;99868.31;;;-0.86;74.55
70200;BME280;57587;55.688;37.600;2024-02-23T06:43:26;99878.09;;;-0.76;74.21
70200;BME280;57587;55.688;37.600;2024-02-23T06:45:53;99869.25;;;-0.75;73.65
70200;BME280;57587;55.688;37.600;2024-02-23T06:48:21;99874.28;;;-0.84;73.98
70200;BME280;57587;55.688;37.600;2024-02-23T06:50:49;99876.84;;;-0.83;73.84
70200;BME280;57587;55.688;37.600;2024-02-23T06:53:27;99877.25;;;-0.76;73.94
70200;BME280;57587;55.688;37.600;2024-02-23T06:55:54;99879.47;;;-0.70;73.95
70200;BME280;57587;55.688;37.600;2024-02-23T06:58:22;99884.72;;;-0.83;73.94
70200;BME280;57587;55.688;37.600;2024-02-23T07:00:49;99885.00;;;-0.75;74.04
70200;BME280;57587;55.688;37.600;2024-02-23T07:03:16;99885.22;;;-0.78;73.59
70200;BME280;57587;55.688;37.600;2024-02-23T07:05:43;99884.94;;;-0.73;73.62
70200;BME280;57587;55.688;37.600;2024-02-23T07:08:12;99893.56;;;-0.71;73.52
70200;BME280;57587;55.688;37.600;2024-02-23T07:10:39;99891.56;;;-0.67;73.57
70200;BME280;57587;55.688;37.600;2024-02-23T07:13:07;99889.44;;;-0.62;73.26
70200;BME280;57587;55.688;37.600;2024-02-23T07:15:34;99898.28;;;-0.51;73.04
70200;BME280;57587;55.688;37.600;2024-02-23T07:18:03;99878.28;;;-0.53;72.71
70200;BME280;57587;55.688;37.600;2024-02-23T07:20:30;99896.06;;;-0.57;72.81
70200;BME280;57587;55.688;37.600;2024-02-23T07:22:58;99902.69;;;-0.64;72.62
70200;BME280;57587;55.688;37.600;2024-02-23T07:25:25;99891.97;;;-0.61;72.68
70200;BME280;57587;55.688;37.600;2024-02-23T07:27:52;99893.66;;;-0.73;72.69
70200;BME280;57587;55.688;37.600;2024-02-23T07:30:19;99897.03;;;-0.71;72.62
70200;BME280;57587;55.688;37.600;2024-02-23T07:32:46;99891.34;;;-0.64;72.86
70200;BME280;57587;55.688;37.600;2024-02-23T07:35:19;99894.06;;;-0.53;72.58
70200;BME280;57587;55.688;37.600;2024-02-23T07:37:46;99887.75;;;-0.51;72.10
70200;BME280;57587;55.688;37.600;2024-02-23T07:40:13;99884.16;;;-0.50;72.28
70200;BME280;57587;55.688;37.600;2024-02-23T07:42:44;99887.75;;;-0.51;71.93
70200;BME280;57587;55.688;37.600;2024-02-23T07:45:12;99888.38;;;-0.60;72.32
70200;BME280;57587;55.688;37.600;2024-02-23T07:47:39;99895.22;;;-0.57;72.62
70200;BME280;57587;55.688;37.600;2024-02-23T07:50:12;99880.91;;;-0.53;72.26
70200;BME280;57587;55.688;37.600;2024-02-23T07:52:45;99880.19;;;-0.30;71.94
70200;BME280;57587;55.688;37.600;2024-02-23T07:55:13;99889.88;;;-0.30;71.49
70200;BME280;57587;55.688;37.600;2024-02-23T07:57:44;99888.16;;;-0.31;71.37
70200;BME280;57587;55.688;37.600;2024-02-23T08:00:11;99896.91;;;-0.31;71.73
70200;BME280;57587;55.688;37.600;2024-02-23T08:02:39;99891.97;;;-0.35;71.78
70200;BME280;57587;55.688;37.600;2024-02-23T08:05:07;99894.06;;;-0.40;72.17
70200;BME280;57587;55.688;37.600;2024-02-23T08:07:35;99905.63;;;-0.30;72.01
70200;BME280;57587;55.688;37.600;2024-02-23T08:10:02;99891.63;;;-0.18;71.94
70200;BME280;57587;55.688;37.600;2024-02-23T08:12:32;99891.63;;;-0.18;71.48
70200;BME280;57587;55.688;37.600;2024-02-23T08:14:59;99887.31;;;-0.19;71.50
70200;BME280;57587;55.688;37.600;2024-02-23T08:17:26;99900.59;;;-0.33;71.57
70200;BME280;57587;55.688;37.600;2024-02-23T08:19:54;99914.56;;;-0.20;72.18
70200;BME280;57587;55.688;37.600;2024-02-23T08:22:21;99906.03;;;-0.11;71.70
70200;BME280;57587;55.688;37.600;2024-02-23T08:24:51;99911.41;;;-0.12;71.63
70200;BME280;57587;55.688;37.600;2024-02-23T08:27:18;99918.88;;;-0.19;71.89
70200;BME280;57587;55.688;37.600;2024-02-23T08:29:45;99913.38;;;-0.16;72.11
70200;BME280;57587;55.688;37.600;2024-02-23T08:32:12;99916.25;;;-0.06;71.28
70200;BME280;57587;55.688;37.600;2024-02-23T08:34:40;99912.41;;;0.11;70.99
70200;BME280;57587;55.688;37.600;2024-02-23T08:37:07;99916.19;;;0.19;70.44
70200;BME280;57587;55.688;37.600;2024-02-23T08:39:34;99918.47;;;0.24;70.47
70200;BME280;57587;55.688;37.600;2024-02-23T08:42:04;99925.22;;;0.28;69.87
70200;BME280;57587;55.688;37.600;2024-02-23T08:44:31;99919.50;;;0.34;70.24
70200;BME280;57587;55.688;37.600;2024-02-23T08:46:58;99913.81;;;0.28;70.12
70200;BME280;57587;55.688;37.600;2024-02-23T08:49:25;99922.16;;;0.21;70.19
70200;BME280;57587;55.688;37.600;2024-02-23T08:51:52;99923.81;;;0.35;70.12
70200;BME280;57587;55.688;37.600;2024-02-23T08:54:19;99925.28;;;0.39;69.89
70200;BME280;57587;55.688;37.600;2024-02-23T08:56:46;99922.19;;;0.45;69.57
70200;BME280;57587;55.688;37.600;2024-02-23T08:59:13;99927.16;;;0.50;69.39
70200;BME280;57587;55.688;37.600;2024-02-23T09:01:41;99942.16;;;0.61;69.04
70200;BME280;57587;55.688;37.600;2024-02-23T09:04:08;99931.84;;;0.58;69.30
70200;BME280;57587;55.688;37.600;2024-02-23T09:06:35;99932.84;;;0.68;68.54
70200;BME280;57587;55.688;37.600;2024-02-23T09:09:06;99940.66;;;0.69;69.00
70200;BME280;57587;55.688;37.600;2024-02-23T09:11:35;99933.28;;;0.62;68.67
70200;BME280;57587;55.688;37.600;2024-02-23T09:14:03;99929.22;;;0.58;68.89
70200;BME280;57587;55.688;37.600;2024-02-23T09:16:31;99951.38;;;0.42;69.64
70200;BME280;57587;55.688;37.600;2024-02-23T09:19:00;99934.34;;;0.35;70.07
70200;BME280;57587;55.688;37.600;2024-02-23T09:21:28;99938.72;;;0.48;69.85
70200;BME280;57587;55.688;37.600;2024-02-23T09:23:55;99932.94;;;0.42;69.95
70200;BME280;57587;55.688;37.600;2024-02-23T09:26:22;99938.06;;;0.57;69.88
70200;BME280;57587;55.688;37.600;2024-02-23T09:28:49;99945.22;;;0.55;69.90
70200;BME280;57587;55.688;37.600;2024-02-23T09:31:17;99948.59;;;0.57;69.86
70200;BME280;57587;55.688;37.600;2024-02-23T09:33:47;99940.56;;;0.58;69.91
70200;BME280;57587;55.688;37.600;2024-02-23T09:36:17;99947.19;;;0.64;69.57
70200;BME280;57587;55.688;37.600;2024-02-23T09:38:44;99940.88;;;0.90;70.08
70200;BME280;57587;55.688;37.600;2024-02-23T09:41:19;99935.16;;;0.97;68.84
70200;BME280;57587;55.688;37.600;2024-02-23T09:43:48;99929.59;;;0.88;68.88
70200;BME280;57587;55.688;37.600;2024-02-23T09:46:19;99942.56;;;0.91;69.26
70200;BME280;57587;55.688;37.600;2024-02-23T09:48:48;99930.59;;;0.99;68.60
70200;BME280;57587;55.688;37.600;2024-02-23T09:51:15;99936.53;;;1.13;68.66
70200;BME280;57587;55.688;37.600;2024-02-23T09:53:43;99937.44;;;1.01;68.73
70200;BME280;57587;55.688;37.600;2024-02-23T09:56:10;99934.09;;;0.99;68.63
70200;BME280;57587;55.688;37.600;2024-02-23T09:58:39;99936.44;;;0.91;69.29
70200;BME280;57587;55.688;37.600;2024-02-23T10:01:08;99942.38;;;1.06;69.27
70200;BME280;57587;55.688;37.600;2024-02-23T10:03:39;99939.91;;;1.15;68.66
70200;BME280;57587;55.688;37.600;2024-02-23T10:06:06;99944.34;;;1.26;68.67
70200;BME280;57587;55.688;37.600;2024-02-23T10:08:33;99944.00;;;1.31;68.50
70200;BME280;57587;55.688;37.600;2024-02-23T10:11:00;99949.63;;;1.26;68.66
70200;BME280;57587;55.688;37.600;2024-02-23T10:13:29;99948.06;;;1.24;68.76
70200;BME280;57587;55.688;37.600;2024-02-23T10:15:56;99940.53;;;1.30;68.24
70200;BME280;57587;55.688;37.600;2024-02-23T10:18:40;99934.59;;;1.51;68.44
70200;BME280;57587;55.688;37.600;2024-02-23T10:21:07;99938.56;;;1.56;68.21
70200;BME280;57587;55.688;37.600;2024-02-23T10:23:38;99952.34;;;1.49;67.74
70200;BME280;57587;55.688;37.600;2024-02-23T10:26:19;99943.69;;;1.47;68.17
70200;BME280;57587;55.688;37.600;2024-02-23T10:28:51;99932.44;;;1.56;68.05
70200;BME280;57587;55.688;37.600;2024-02-23T10:31:19;99941.56;;;1.52;68.52
70200;BME280;57587;55.688;37.600;2024-02-23T10:33:47;99942.03;;;1.46;68.79
70200;BME280;57587;55.688;37.600;2024-02-23T10:36:17;99950.16;;;1.54;68.12
70200;BME280;57587;55.688;37.600;2024-02-23T10:38:45;99936.78;;;1.68;68.17
70200;BME280;57587;55.688;37.600;2024-02-23T10:41:17;99940.72;;;1.63;68.60
70200;BME280;57587;55.688;37.600;2024-02-23T10:43:48;99943.84;;;1.68;68.46
70200;BME280;57587;55.688;37.600;2024-02-23T10:46:15;99952.50;;;1.81;67.92
70200;BME280;57587;55.688;37.600;2024-02-23T10:48:44;99957.31;;;1.87;67.68
70200;BME280;57587;55.688;37.600;2024-02-23T10:51:14;99950.94;;;1.90;68.01
70200;BME280;57587;55.688;37.600;2024-02-23T10:53:46;99959.44;;;1.82;68.12
70200;BME280;57587;55.688;37.600;2024-02-23T10:56:15;99967.00;;;1.75;68.29
70200;BME280;57587;55.688;37.600;2024-02-23T10:58:43;99957.78;;;1.81;68.54
70200;BME280;57587;55.688;37.600;2024-02-23T11:01:14;99975.88;;;1.85;68.80
70200;BME280;57587;55.688;37.600;2024-02-23T11:03:43;99964.34;;;1.75;68.89
70200;BME280;57587;55.688;37.600;2024-02-23T11:06:15;99972.25;;;1.64;69.14
70200;BME280;57587;55.688;37.600;2024-02-23T11:08:48;99963.03;;;1.58;69.91
70200;BME280;57587;55.688;37.600;2024-02-23T11:11:18;99970.34;;;1.66;69.60
70200;BME280;57587;55.688;37.600;2024-02-23T11:13:46;99969.53;;;1.77;69.67
70200;BME280;57587;55.688;37.600;2024-02-23T11:16:22;99980.94;;;2.00;69.30
70200;BME280;57587;55.688;37.600;2024-02-23T11:19:03;99973.25;;;1.97;68.46
70200;BME280;57587;55.688;37.600;2024-02-23T11:21:37;99977.81;;;2.06;68.67
70200;BME280;57587;55.688;37.600;2024-02-23T11:24:06;99977.09;;;2.15;68.93
70200;BME280;57587;55.688;37.600;2024-02-23T11:26:36;99978.78;;;2.16;68.56
70200;BME280;57587;55.688;37.600;2024-02-23T11:29:13;99968.69;;;2.21;68.27
70200;BME280;57587;55.688;37.600;2024-02-23T11:31:46;99976.88;;;2.18;68.41
70200;BME280;57587;55.688;37.600;2024-02-23T11:34:21;99992.44;;;2.10;68.87
70200;BME280;57587;55.688;37.600;2024-02-23T11:36:55;99982.38;;;2.04;69.15
70200;BME280;57587;55.688;37.600;2024-02-23T11:39:23;99989.84;;;2.33;69.03
70200;BME280;57587;55.688;37.600;2024-02-23T11:41:50;99992.47;;;1.99;69.31
70200;BME280;57587;55.688;37.600;2024-02-23T11:44:18;99979.97;;;2.01;69.31
70200;BME280;57587;55.688;37.600;2024-02-23T11:46:46;99985.03;;;2.15;69.34
70200;BME280;57587;55.688;37.600;2024-02-23T11:49:14;99972.31;;;2.20;69.23
70200;BME280;57587;55.688;37.600;2024-02-23T11:51:42;99979.28;;;2.33;68.79
70200;BME280;57587;55.688;37.600;2024-02-23T11:54:11;99976.88;;;2.18;68.86
70200;BME280;57587;55.688;37.600;2024-02-23T11:56:40;99999.66;;;2.08;69.32
70200;BME280;57587;55.688;37.600;2024-02-23T11:59:07;99982.38;;;2.04;69.91
70200;BME280;57587;55.688;37.600;2024-02-23T12:01:35;99989.22;;;2.06;69.76
70200;BME280;57587;55.688;37.600;2024-02-23T12:04:02;99992.69;;;1.96;70.26
70200;BME280;57587;55.688;37.600;2024-02-23T12:06:29;99980.19;;;1.75;70.87
70200;BME280;57587;55.688;37.600;2024-02-23T12:09:00;99992.63;;;1.73;71.02
70200;BME280;57587;55.688;37.600;2024-02-23T12:11:27;99978.75;;;1.71;71.39
70200;BME280;57587;55.688;37.600;2024-02-23T12:13:55;99977.56;;;1.87;71.61
70200;BME280;57587;55.688;37.600;2024-02-23T12:16:26;99993.16;;;1.90;70.98
70200;BME280;57587;55.688;37.600;2024-02-23T12:18:54;100010.19;;;1.74;71.32
70200;BME280;57587;55.688;37.600;2024-02-23T12:21:24;99994.56;;;1.71;72.13
70200;BME280;57587;55.688;37.600;2024-02-23T12:23:52;99994.31;;;1.63;71.87
70200;BME280;57587;55.688;37.600;2024-02-23T12:26:19;100011.25;;;1.72;71.91
70200;BME280;57587;55.688;37.600;2024-02-23T12:28:50;99995.19;;;1.75;71.74
70200;BME280;57587;55.688;37.600;2024-02-23T12:31:24;99988.53;;;1.58;71.91
70200;BME280;57587;55.688;37.600;2024-02-23T12:33:54;99988.38;;;1.83;72.08
70200;BME280;57587;55.688;37.600;2024-02-23T12:36:22;99989.66;;;1.78;71.81
70200;BME280;57587;55.688;37.600;2024-02-23T12:38:50;100004.91;;;1.74;71.75
70200;BME280;57587;55.688;37.600;2024-02-23T12:41:17;100002.72;;;1.79;71.66
70200;BME280;57587;55.688;37.600;2024-02-23T12:43:44;100000.13;;;1.91;71.51
70200;BME280;57587;55.688;37.600;2024-02-23T12:46:14;99993.31;;;1.99;71.37
70200;BME280;57587;55.688;37.600;2024-02-23T12:48:41;99990.41;;;1.91;71.13
70200;BME280;57587;55.688;37.600;2024-02-23T12:51:11;100009.72;;;1.80;72.39
70200;BME280;57587;55.688;37.600;2024-02-23T12:53:40;100014.50;;;1.87;71.79
70200;BME280;57587;55.688;37.600;2024-02-23T12:56:12;99999.28;;;1.90;71.66
70200;BME280;57587;55.688;37.600;2024-02-23T12:58:44;99993.88;;;1.80;71.99
70200;BME280;57587;55.688;37.600;2024-02-23T13:01:11;100000.84;;;1.93;71.66
70200;BME280;57587;55.688;37.600;2024-02-23T13:03:42;100001.91;;;1.90;71.75
70200;BME280;57587;55.688;37.600;2024-02-23T13:06:21;100008.47;;;1.73;72.24
70200;BME280;57587;55.688;37.600;2024-02-23T13:08:48;100029.13;;;1.79;72.35
70200;BME280;57587;55.688;37.600;2024-02-23T13:11:25;100014.03;;;1.93;72.08
70200;BME280;57587;55.688;37.600;2024-02-23T13:13:52;100010.19;;;1.97;71.92